Time;durP1;ratioP1;P1;durP2;ratioP2;P2;SDS_P1;SDS_P2;PMS_P1;PMS_P2;Temp;Humidity;BMP_temperature;BMP_pressure;BME280_temperature;BME280_humidity;BME280_pressure;Samples;Min_cycle;Max_cycle;Signal;HPM_P1;HPM_P2
2022/07/14 00:00:43;;;;;;;2.17;1.50;;;16.30;99.90;;;;;;5054550;28;20311;-69
2022/07/14 00:03:10;;;;;;;4.50;1.60;;;16.30;99.90;;;;;;5054497;28;20205;-66
2022/07/14 00:05:37;;;;;;;1.77;1.60;;;16.30;99.90;;;;;;5039858;28;20316;-66
2022/07/14 00:08:05;;;;;;;2.60;1.50;;;16.30;99.90;;;;;;5039690;28;20623;-66
2022/07/14 00:10:32;;;;;;;3.73;1.50;;;16.30;99.90;;;;;;5047125;28;20665;-66
2022/07/14 00:13:00;;;;;;;2.30;1.50;;;16.40;99.90;;;;;;5034589;28;20238;-67
2022/07/14 00:15:27;;;;;;;1.73;1.63;;;16.40;99.90;;;;;;5048569;28;20210;-66
2022/07/14 00:17:55;;;;;;;2.13;1.50;;;16.40;99.90;;;;;;5053779;28;20307;-67
2022/07/14 00:20:22;;;;;;;1.60;1.50;;;16.40;99.90;;;;;;5053172;28;20226;-66
2022/07/14 00:22:49;;;;;;;2.90;1.50;;;16.30;99.90;;;;;;5038054;28;20572;-67
2022/07/14 00:25:17;;;;;;;3.57;1.50;;;16.40;99.90;;;;;;5034010;28;20202;-66
2022/07/14 00:27:45;;;;;;;3.60;1.40;;;16.30;99.90;;;;;;5049024;28;20233;-66
2022/07/14 00:30:12;;;;;;;4.40;1.60;;;16.30;99.90;;;;;;5054217;28;20202;-67
2022/07/14 00:32:39;;;;;;;2.33;1.70;;;16.30;99.90;;;;;;5053885;28;20293;-67
2022/07/14 00:35:07;;;;;;;1.50;1.40;;;16.30;99.90;;;;;;5053598;28;20328;-66
2022/07/14 00:37:34;;;;;;;2.30;1.50;;;16.30;99.90;;;;;;5053764;28;20682;-66
2022/07/14 00:40:04;;;;;;;2.03;1.43;;;16.20;99.90;;;;;;5036326;28;20660;-65
2022/07/14 00:42:35;;;;;;;4.17;1.67;;;16.20;99.90;;;;;;5034107;28;20256;-66
2022/07/14 00:45:03;;;;;;;3.53;1.60;;;16.20;99.90;;;;;;5034477;28;20317;-66
2022/07/14 00:47:30;;;;;;;3.20;1.60;;;16.20;99.90;;;;;;5048772;28;20542;-67
2022/07/14 00:49:57;;;;;;;3.13;1.40;;;16.20;99.90;;;;;;5053396;28;20295;-67
2022/07/14 00:52:26;;;;;;;2.13;1.53;;;16.20;99.90;;;;;;5053502;28;20313;-65
2022/07/14 00:54:54;;;;;;;1.57;1.47;;;16.20;99.90;;;;;;5053445;28;20301;-67
2022/07/14 00:57:21;;;;;;;2.33;1.40;;;16.20;99.90;;;;;;5033599;28;20242;-66
2022/07/14 00:59:50;;;;;;;1.50;1.40;;;16.10;99.90;;;;;;5033379;28;20227;-66
2022/07/14 01:02:18;;;;;;;5.73;2.00;;;16.10;99.90;;;;;;5033839;28;20665;-67
2022/07/14 01:04:47;;;;;;;1.90;1.60;;;16.10;99.90;;;;;;5052985;28;20660;-66
2022/07/14 01:07:16;;;;;;;1.73;1.53;;;16.10;99.90;;;;;;5053280;28;20300;-66
2022/07/14 01:09:43;;;;;;;2.13;1.60;;;16.10;99.90;;;;;;5052904;28;20209;-65
2022/07/14 01:12:11;;;;;;;2.27;1.60;;;16.10;99.90;;;;;;5050907;28;20237;-65
2022/07/14 01:14:39;;;;;;;1.63;1.50;;;16.10;99.90;;;;;;5033185;28;20296;-66
2022/07/14 01:17:08;;;;;;;3.20;1.50;;;16.10;99.90;;;;;;5033116;28;20211;-66
2022/07/14 01:19:36;;;;;;;4.13;1.60;;;16.10;99.90;;;;;;5032772;28;20227;-66
2022/07/14 01:22:05;;;;;;;2.80;1.60;;;16.10;99.90;;;;;;5033181;28;20214;-66
2022/07/14 01:24:32;;;;;;;4.60;1.70;;;16.10;99.90;;;;;;5032811;28;20206;-67
2022/07/14 01:26:59;;;;;;;2.20;1.57;;;16.10;99.90;;;;;;5033088;28;20297;-66
2022/07/14 01:29:29;;;;;;;2.53;1.50;;;16.10;99.90;;;;;;5033650;28;20248;-67
2022/07/14 01:31:56;;;;;;;1.90;1.70;;;16.10;99.90;;;;;;5033076;28;20210;-66
2022/07/14 01:34:23;;;;;;;2.83;1.50;;;16.10;99.90;;;;;;5032569;28;20280;-65
2022/07/14 01:36:52;;;;;;;1.67;1.57;;;16.10;99.90;;;;;;5032510;28;20238;-66
2022/07/14 01:39:21;;;;;;;2.63;1.63;;;16.10;99.90;;;;;;5032666;28;20226;-66
2022/07/14 01:41:49;;;;;;;1.97;1.60;;;16.10;99.90;;;;;;5032864;28;20744;-66
2022/07/14 01:44:16;;;;;;;2.77;1.70;;;16.10;99.90;;;;;;5032549;28;20250;-66
2022/07/14 01:46:43;;;;;;;3.10;1.70;;;16.10;99.90;;;;;;5032832;28;20329;-65
2022/07/14 01:49:10;;;;;;;2.47;1.67;;;16.10;99.90;;;;;;5032734;28;20248;-68
2022/07/14 01:51:37;;;;;;;1.70;1.60;;;16.10;99.90;;;;;;5041495;28;20720;-67
2022/07/14 01:54:05;;;;;;;3.30;1.57;;;16.10;99.90;;;;;;5052364;28;20631;-67
2022/07/14 01:56:34;;;;;;;1.93;1.83;;;16.10;99.90;;;;;;5052164;28;20206;-67
2022/07/14 01:59:01;;;;;;;3.43;1.93;;;16.10;99.90;;;;;;5052482;28;20301;-65
2022/07/14 02:01:40;;;;;;;3.13;1.40;;;16.10;99.90;;;;;;5051771;28;20207;-66
2022/07/14 02:04:09;;;;;;;4.20;1.90;;;16.10;99.90;;;;;;5042115;28;20605;-66
2022/07/14 02:06:37;;;;;;;6.70;2.13;;;16.10;99.90;;;;;;5032361;28;20670;-66
2022/07/14 02:09:04;;;;;;;2.63;2.00;;;16.10;99.90;;;;;;5032372;28;20683;-66
2022/07/14 02:14:17;;;;;;;2.20;1.63;;;16.00;99.90;;;;;;5031836;28;20204;-67
2022/07/14 02:16:44;;;;;;;3.73;2.00;;;16.00;99.90;;;;;;5032065;28;20301;-66
2022/07/14 02:19:11;;;;;;;3.73;2.07;;;16.00;99.90;;;;;;5031815;28;20261;-67
2022/07/14 02:21:39;;;;;;;1.77;1.60;;;15.90;99.90;;;;;;5032529;28;20741;-67
2022/07/14 02:24:06;;;;;;;2.50;2.00;;;15.90;99.90;;;;;;5032286;28;20700;-67
2022/07/14 02:26:35;;;;;;;2.60;1.80;;;15.90;99.90;;;;;;5031963;28;20214;-66
2022/07/14 02:29:02;;;;;;;2.10;1.90;;;15.90;99.90;;;;;;5031837;28;20297;-66
2022/07/14 02:31:29;;;;;;;2.80;1.90;;;15.90;99.90;;;;;;5031795;28;20660;-67
2022/07/14 02:33:55;;;;;;;2.00;1.90;;;15.90;99.90;;;;;;5032075;28;20568;-67
2022/07/14 02:36:23;;;;;;;2.60;1.80;;;15.90;99.90;;;;;;5031395;28;20333;-67
2022/07/14 02:38:50;;;;;;;4.17;2.17;;;15.90;99.90;;;;;;5047638;28;20257;-67
2022/07/14 02:41:17;;;;;;;2.70;2.50;;;15.90;99.90;;;;;;5051492;28;20256;-66
2022/07/14 02:43:45;;;;;;;4.80;1.90;;;15.90;99.90;;;;;;5051328;28;20817;-67
2022/07/14 02:46:12;;;;;;;5.23;1.60;;;15.90;99.90;;;;;;5051332;28;20310;-67
2022/07/14 02:48:39;;;;;;;1.70;1.60;;;15.90;99.90;;;;;;5051671;28;20292;-67
2022/07/14 02:51:07;;;;;;;1.80;1.70;;;15.90;99.90;;;;;;5051842;28;20624;-67
2022/07/14 02:53:35;;;;;;;3.30;1.77;;;15.80;99.90;;;;;;5051465;28;20294;-67
2022/07/14 02:56:02;;;;;;;2.23;1.70;;;15.80;99.90;;;;;;5050671;28;20214;-66
2022/07/14 02:58:29;;;;;;;2.80;2.60;;;15.80;99.90;;;;;;5051553;28;20332;-66
2022/07/14 03:00:57;;;;;;;4.17;1.97;;;15.80;99.90;;;;;;5051606;28;20647;-66
2022/07/14 03:03:24;;;;;;;3.10;2.17;;;15.80;99.90;;;;;;5042633;28;20225;-67
2022/07/14 03:05:51;;;;;;;2.63;1.90;;;15.80;99.90;;;;;;5031629;28;20216;-68
2022/07/14 03:08:19;;;;;;;5.63;2.63;;;15.70;99.90;;;;;;5031483;28;20745;-67
2022/07/14 03:10:45;;;;;;;1.80;1.70;;;15.70;99.90;;;;;;5047493;28;20267;-67
2022/07/14 03:13:12;;;;;;;2.87;2.20;;;15.70;99.90;;;;;;5044664;28;20209;-67
2022/07/14 03:15:39;;;;;;;4.40;2.50;;;15.70;99.90;;;;;;5046569;28;20716;-66
2022/07/14 03:18:08;;;;;;;5.90;2.10;;;15.70;99.90;;;;;;5049968;28;20239;-66
2022/07/14 03:20:35;;;;;;;5.90;2.60;;;15.70;99.90;;;;;;5041506;28;20230;-66
2022/07/14 03:23:01;;;;;;;4.83;2.07;;;15.80;99.90;;;;;;5031235;28;20241;-67
2022/07/14 03:25:28;;;;;;;3.13;2.10;;;15.70;99.90;;;;;;5031527;28;20313;-67
2022/07/14 03:27:57;;;;;;;2.50;2.00;;;15.80;99.90;;;;;;5031511;28;20206;-67
2022/07/14 03:30:24;;;;;;;3.90;2.00;;;15.80;99.90;;;;;;5037621;28;20304;-67
2022/07/14 03:32:51;;;;;;;2.10;1.90;;;15.80;99.90;;;;;;5051428;28;20719;-67
2022/07/14 03:35:20;;;;;;;3.40;1.93;;;15.80;99.90;;;;;;5049711;28;20328;-66
2022/07/14 03:37:46;;;;;;;2.27;2.03;;;15.80;99.90;;;;;;5031269;28;20728;-67
2022/07/14 03:40:14;;;;;;;3.43;2.20;;;15.80;99.90;;;;;;5030550;28;20249;-66
2022/07/14 03:42:41;;;;;;;3.57;2.60;;;15.80;99.90;;;;;;5031114;28;20268;-68
2022/07/14 03:45:08;;;;;;;2.23;2.00;;;15.70;99.90;;;;;;5030715;28;20234;-70
2022/07/14 03:47:35;;;;;;;10.00;2.30;;;15.80;99.90;;;;;;5031194;28;20216;-68
2022/07/14 03:50:02;;;;;;;2.73;2.10;;;15.80;99.90;;;;;;5030512;28;20415;-66
2022/07/14 03:52:30;;;;;;;2.80;2.20;;;15.80;99.90;;;;;;5031410;28;20207;-67
2022/07/14 03:54:57;;;;;;;3.97;2.13;;;15.80;99.90;;;;;;5031060;28;20265;-66
2022/07/14 03:57:24;;;;;;;2.80;2.30;;;15.80;99.90;;;;;;5034663;28;20734;-67
2022/07/14 03:59:51;;;;;;;3.50;2.20;;;15.80;99.90;;;;;;5033966;28;20222;-68
2022/07/14 04:02:18;;;;;;;4.37;2.10;;;15.80;99.90;;;;;;5034450;28;20216;-66
2022/07/14 04:04:45;;;;;;;3.70;2.00;;;15.90;99.90;;;;;;5034794;28;20222;-67
2022/07/14 04:07:12;;;;;;;6.00;2.30;;;15.90;99.90;;;;;;5033686;28;20212;-67
2022/07/14 04:09:40;;;;;;;2.73;2.13;;;16.00;99.90;;;;;;5034690;28;20673;-68
2022/07/14 04:12:07;;;;;;;2.57;2.17;;;16.10;99.90;;;;;;5033455;28;20244;-70
2022/07/14 04:14:35;;;;;;;3.13;2.20;;;16.10;99.90;;;;;;5034285;28;20280;-67
2022/07/14 04:17:02;;;;;;;2.87;2.37;;;16.10;99.90;;;;;;5034680;28;20208;-66
2022/07/14 04:19:29;;;;;;;2.37;2.10;;;16.10;99.90;;;;;;5034426;28;20729;-67
2022/07/14 04:21:56;;;;;;;6.47;2.70;;;16.20;99.90;;;;;;5034230;28;20392;-68
2022/07/14 04:24:22;;;;;;;2.93;2.10;;;16.20;99.90;;;;;;5034152;28;20550;-68
2022/07/14 04:26:51;;;;;;;3.50;2.20;;;16.30;99.90;;;;;;5035728;28;20297;-70
2022/07/14 04:29:18;;;;;;;4.40;2.60;;;16.30;99.90;;;;;;5048750;28;20319;-68
2022/07/14 04:31:44;;;;;;;6.77;3.50;;;16.30;99.90;;;;;;5033810;28;20215;-67
2022/07/14 04:34:11;;;;;;;3.93;2.60;;;16.30;99.90;;;;;;5034165;28;20212;-70
2022/07/14 04:36:38;;;;;;;5.43;2.57;;;16.30;99.90;;;;;;5033683;28;20314;-67
2022/07/14 04:39:07;;;;;;;5.73;2.33;;;16.30;99.90;;;;;;5032753;28;20203;-68
2022/07/14 04:41:35;;;;;;;3.00;2.30;;;16.30;99.90;;;;;;5052717;28;20238;-70
2022/07/14 04:44:04;;;;;;;5.10;2.37;;;16.20;99.90;;;;;;5053880;28;20294;-68
2022/07/14 04:46:31;;;;;;;3.83;2.20;;;16.30;99.90;;;;;;5053672;28;20698;-69
2022/07/14 04:54:26;;;;;;;3.43;2.17;;;16.40;99.90;;;;;;5053556;28;20193;-66
2022/07/14 04:56:53;;;;;;;2.73;1.93;;;16.40;99.90;;;;;;5053467;28;20672;-66
2022/07/14 04:59:21;;;;;;;2.57;2.37;;;16.40;99.90;;;;;;5043914;28;20221;-66
2022/07/14 05:01:48;;;;;;;3.60;2.23;;;16.50;99.90;;;;;;5051980;28;20223;-69
2022/07/14 05:04:15;;;;;;;2.37;2.10;;;16.60;99.90;;;;;;5053318;28;20205;-70
2022/07/14 05:06:45;;;;;;;3.40;2.20;;;16.60;99.90;;;;;;5053257;28;20296;-68
2022/07/14 05:09:13;;;;;;;3.23;2.30;;;16.60;99.90;;;;;;5045032;28;20665;-66
2022/07/14 05:11:40;;;;;;;5.30;2.13;;;16.70;99.90;;;;;;5033108;28;20240;-71
2022/07/14 05:14:07;;;;;;;3.40;2.20;;;16.70;99.90;;;;;;5033201;28;20206;-68
2022/07/14 05:16:35;;;;;;;5.13;2.17;;;16.80;99.90;;;;;;5033252;28;20302;-67
2022/07/14 05:19:02;;;;;;;3.10;2.00;;;16.80;99.90;;;;;;5036742;28;20203;-71
2022/07/14 05:21:30;;;;;;;3.57;2.00;;;16.80;99.90;;;;;;5052833;28;20284;-67
2022/07/14 05:23:57;;;;;;;3.13;2.00;;;16.80;99.90;;;;;;5052634;28;20216;-66
2022/07/14 05:26:24;;;;;;;2.77;1.77;;;16.90;99.90;;;;;;5052810;28;20205;-67
2022/07/14 05:28:52;;;;;;;2.43;1.60;;;17.00;99.90;;;;;;5051089;28;20200;-67
2022/07/14 05:31:19;;;;;;;2.10;1.90;;;17.10;99.90;;;;;;5052989;28;20211;-66
2022/07/14 05:33:47;;;;;;;2.97;1.70;;;17.10;99.90;;;;;;5047582;28;20297;-67
2022/07/14 05:36:14;;;;;;;3.40;1.90;;;17.10;99.90;;;;;;5032483;28;20290;-68
2022/07/14 05:38:41;;;;;;;2.00;1.80;;;17.20;99.90;;;;;;5032944;28;20205;-66
2022/07/14 05:41:08;;;;;;;8.20;2.10;;;17.30;99.90;;;;;;5048341;28;20242;-67
2022/07/14 05:43:35;;;;;;;2.00;1.80;;;17.30;99.90;;;;;;5052284;28;20310;-66
2022/07/14 05:46:07;;;;;;;2.17;1.70;;;17.30;99.90;;;;;;5051931;28;20278;-67
2022/07/14 05:48:34;;;;;;;2.90;1.80;;;17.40;99.90;;;;;;5052720;28;20718;-67
2022/07/14 05:51:08;;;;;;;2.13;1.90;;;17.50;99.90;;;;;;5038292;28;20871;-71
2022/07/14 05:53:35;;;;;;;2.50;1.53;;;17.60;99.90;;;;;;5032482;28;20202;-67
2022/07/14 05:56:02;;;;;;;2.93;1.60;;;17.70;99.90;;;;;;5032519;28;20296;-66
2022/07/14 05:58:29;;;;;;;2.57;1.80;;;17.80;99.90;;;;;;5040529;28;20235;-67
2022/07/14 06:00:56;;;;;;;1.60;1.50;;;17.80;99.90;;;;;;5043101;28;20233;-68
2022/07/14 06:03:23;;;;;;;2.43;1.40;;;17.90;99.90;;;;;;5031464;28;20293;-68
2022/07/14 06:05:50;;;;;;;1.70;1.60;;;17.90;99.90;;;;;;5032236;28;20613;-66
2022/07/14 06:08:18;;;;;;;3.60;1.40;;;18.00;99.90;;;;;;5032316;28;20202;-67
2022/07/14 06:10:45;;;;;;;3.30;1.50;;;18.00;99.90;;;;;;5032262;28;20214;-67
2022/07/14 06:13:12;;;;;;;6.30;1.77;;;18.10;99.90;;;;;;5032169;28;20245;-66
2022/07/14 06:15:39;;;;;;;3.00;2.10;;;18.10;99.90;;;;;;5031751;28;20210;-68
2022/07/14 06:18:06;;;;;;;2.33;1.70;;;18.10;99.90;;;;;;5031336;28;20294;-68
2022/07/14 06:20:33;;;;;;;4.03;1.77;;;18.20;99.90;;;;;;5031662;28;20297;-67
2022/07/14 06:23:00;;;;;;;3.37;1.93;;;18.40;99.90;;;;;;5031870;28;20632;-66
2022/07/14 06:25:28;;;;;;;3.40;1.77;;;18.50;99.90;;;;;;5031689;28;20202;-67
2022/07/14 06:27:55;;;;;;;5.37;1.60;;;18.60;99.90;;;;;;5031163;28;20411;-69
2022/07/14 06:30:22;;;;;;;1.43;1.33;;;18.70;99.90;;;;;;5032060;28;20302;-67
2022/07/14 06:32:49;;;;;;;1.87;1.30;;;18.70;99.90;;;;;;5031922;28;20664;-67
2022/07/14 06:35:16;;;;;;;3.17;1.60;;;18.80;99.90;;;;;;5031321;28;20800;-67
2022/07/14 06:37:42;;;;;;;4.37;1.63;;;18.90;99.90;;;;;;5031988;28;20199;-67
2022/07/14 06:40:10;;;;;;;2.87;1.80;;;18.90;99.90;;;;;;5031887;28;20261;-67
2022/07/14 06:42:38;;;;;;;2.90;1.93;;;19.00;99.90;;;;;;5031553;28;20226;-67
2022/07/14 06:45:08;;;;;;;2.20;1.90;;;19.10;99.90;;;;;;5031673;28;20621;-67
2022/07/14 06:47:35;;;;;;;4.70;1.70;;;19.10;99.90;;;;;;5037617;28;20267;-68
2022/07/14 06:50:02;;;;;;;2.77;1.87;;;19.20;99.90;;;;;;5051313;28;20203;-67
2022/07/14 06:52:29;;;;;;;3.77;1.50;;;19.30;99.90;;;;;;5051862;28;20298;-67
2022/07/14 06:54:59;;;;;;;3.93;2.10;;;19.40;99.90;;;;;;5046753;28;20220;-67
2022/07/14 06:57:26;;;;;;;4.30;2.30;;;19.40;99.90;;;;;;5031896;28;20197;-67
2022/07/14 06:59:54;;;;;;;1.40;1.30;;;19.40;99.90;;;;;;5031566;28;20214;-70
2022/07/14 07:02:21;;;;;;;3.23;1.90;;;19.50;99.90;;;;;;5031848;28;20221;-68
2022/07/14 07:06:43;;;;;;;4.83;2.57;;;19.60;99.90;;;;;;5030746;28;20260;-67
2022/07/14 07:07:36;;;;;;;4.10;1.60;;;19.70;99.90;;;;;;5033092;28;20206;-67
2022/07/14 07:10:04;;;;;;;3.70;2.20;;;19.80;99.90;;;;;;5033473;28;20290;-67
2022/07/14 07:12:31;;;;;;;3.97;1.60;;;19.80;99.90;;;;;;5031021;28;20298;-69
2022/07/14 07:14:59;;;;;;;4.13;1.80;;;19.80;99.90;;;;;;5031317;28;20350;-67
2022/07/14 07:17:26;;;;;;;3.00;2.53;;;19.90;99.90;;;;;;5031087;28;20638;-68
2022/07/14 07:19:53;;;;;;;2.10;1.90;;;20.00;99.90;;;;;;5031115;28;20676;-68
2022/07/14 07:22:20;;;;;;;3.43;1.80;;;20.10;99.90;;;;;;5030285;28;20226;-69
2022/07/14 07:24:47;;;;;;;3.23;1.80;;;20.20;99.90;;;;;;5031463;28;20297;-68
2022/07/14 07:27:14;;;;;;;2.90;2.03;;;20.30;99.90;;;;;;5031606;28;20672;-67
2022/07/14 07:29:41;;;;;;;3.57;1.80;;;20.50;99.90;;;;;;5039884;28;20212;-68
2022/07/14 07:32:11;;;;;;;3.80;1.80;;;20.50;99.90;;;;;;5054949;28;20296;-67
2022/07/14 07:34:38;;;;;;;4.30;1.93;;;20.70;99.90;;;;;;5052900;28;20648;-67
2022/07/14 07:37:05;;;;;;;3.57;1.77;;;20.70;99.90;;;;;;5051078;28;20197;-67
2022/07/14 07:39:33;;;;;;;2.70;1.67;;;20.70;99.90;;;;;;5040711;28;20289;-67
2022/07/14 07:42:01;;;;;;;3.83;1.83;;;20.70;99.90;;;;;;5054021;28;20647;-67
2022/07/14 07:44:29;;;;;;;3.57;2.00;;;20.70;99.90;;;;;;5041638;28;20226;-67
2022/07/14 07:46:56;;;;;;;7.13;2.53;;;20.80;99.90;;;;;;5053643;28;20209;-68
2022/07/14 07:49:25;;;;;;;2.53;1.83;;;20.90;99.90;;;;;;5054561;28;20682;-67
2022/07/14 07:51:57;;;;;;;2.50;2.13;;;21.00;99.90;;;;;;5054673;28;20289;-67
2022/07/14 07:54:24;;;;;;;3.40;1.90;;;21.20;99.90;;;;;;5054654;28;20194;-67
2022/07/14 07:56:51;;;;;;;2.87;1.90;;;21.20;99.90;;;;;;5055114;28;20570;-68
2022/07/14 07:59:18;;;;;;;2.20;1.57;;;21.30;99.90;;;;;;5054370;28;20259;-66
2022/07/14 08:01:45;;;;;;;3.07;1.70;;;21.40;99.90;;;;;;5053289;28;20236;-68
2022/07/14 08:04:14;;;;;;;1.87;1.67;;;21.40;99.90;;;;;;5054366;28;20309;-68
2022/07/14 08:06:42;;;;;;;2.67;1.93;;;21.40;99.90;;;;;;5054139;28;20717;-68
2022/07/14 08:09:12;;;;;;;2.07;1.70;;;21.50;99.90;;;;;;5054644;28;20198;-67
2022/07/14 08:11:39;;;;;;;1.87;1.70;;;21.60;99.90;;;;;;5051764;28;20229;-64
2022/07/14 08:14:47;;;;;;;3.53;1.70;;;21.70;99.90;;;;;;5042997;28;20253;-66
2022/07/14 08:16:53;;;;;;;4.87;1.70;;;21.80;99.90;;;;;;5041964;28;20206;-65
2022/07/14 08:19:20;;;;;;;3.27;1.70;;;21.90;99.90;;;;;;5052391;28;20264;-67
2022/07/14 08:21:49;;;;;;;5.93;1.73;;;21.90;99.90;;;;;;5053946;28;20210;-65
2022/07/14 08:24:16;;;;;;;3.33;1.60;;;21.90;99.90;;;;;;5054320;28;20259;-65
2022/07/14 08:26:43;;;;;;;3.40;1.53;;;22.00;99.90;;;;;;5053766;28;20602;-67
2022/07/14 08:29:10;;;;;;;3.67;1.70;;;22.00;99.90;;;;;;5053904;28;20285;-69
2022/07/14 08:31:37;;;;;;;3.53;1.63;;;22.00;99.90;;;;;;5053990;28;20666;-67
2022/07/14 08:34:04;;;;;;;5.80;2.13;;;22.10;99.90;;;;;;5052768;28;20297;-69
2022/07/14 08:36:31;;;;;;;3.00;1.60;;;22.10;99.90;;;;;;5033627;28;20238;-67
2022/07/14 08:39:00;;;;;;;2.00;1.87;;;22.10;99.90;;;;;;5051134;28;20571;-63
2022/07/14 08:41:27;;;;;;;2.20;1.60;;;22.10;99.90;;;;;;5052828;28;20220;-64
2022/07/14 08:43:55;;;;;;;1.60;1.50;;;22.20;99.90;;;;;;5053436;28;20210;-65
2022/07/14 08:46:23;;;;;;;4.83;1.60;;;22.20;99.90;;;;;;5053509;28;20206;-67
2022/07/14 08:48:52;;;;;;;1.70;1.50;;;22.20;99.90;;;;;;5053840;28;20711;-66
2022/07/14 08:51:19;;;;;;;2.70;1.70;;;22.30;99.90;;;;;;5049826;28;20300;-66
2022/07/14 08:53:47;;;;;;;2.07;1.60;;;22.40;99.90;;;;;;5033153;28;20208;-69
2022/07/14 08:56:15;;;;;;;2.37;1.77;;;22.40;99.90;;;;;;5037663;28;20230;-64
2022/07/14 08:58:44;;;;;;;1.90;1.50;;;22.50;99.90;;;;;;5045512;28;20295;-66
2022/07/14 09:01:12;;;;;;;2.03;1.70;;;22.50;99.90;;;;;;5053541;28;20256;-67
2022/07/14 09:03:39;;;;;;;1.87;1.60;;;22.50;99.90;;;;;;5052538;28;20240;-66
2022/07/14 09:06:07;;;;;;;2.07;1.73;;;22.50;99.90;;;;;;5056778;28;20254;-68
2022/07/14 09:08:54;;;;;;;2.00;1.80;;;22.60;99.90;;;;;;5044313;28;20386;-65
2022/07/14 09:11:22;;;;;;;8.37;2.20;;;22.60;99.90;;;;;;5053245;28;20196;-66
2022/07/14 09:13:50;;;;;;;2.00;1.80;;;22.70;99.90;;;;;;5045422;28;20294;-64
2022/07/14 09:16:20;;;;;;;3.80;1.83;;;22.80;99.90;;;;;;5047604;28;20203;-65
2022/07/14 09:19:04;;;;;;;3.20;1.73;;;22.80;99.90;;;;;;5050305;28;20208;-67
2022/07/14 09:21:31;;;;;;;3.63;2.50;;;22.80;99.90;;;;;;5044210;28;20265;-69
2022/07/14 09:23:59;;;;;;;2.77;2.00;;;22.80;99.90;;;;;;5034398;28;20208;-68
2022/07/14 09:26:29;;;;;;;2.50;2.00;;;22.70;99.90;;;;;;5048359;28;20290;-68
2022/07/14 09:28:56;;;;;;;3.43;2.00;;;22.70;99.90;;;;;;5032721;28;20296;-70
2022/07/14 09:31:25;;;;;;;3.83;2.40;;;22.70;99.90;;;;;;5032350;28;20213;-68
2022/07/14 09:33:55;;;;;;;4.37;1.93;;;22.80;99.90;;;;;;5036441;28;20211;-69
2022/07/14 09:36:29;;;;;;;4.07;2.13;;;22.90;99.90;;;;;;5047038;28;20738;-68
2022/07/14 09:39:06;;;;;;;2.63;2.13;;;23.00;99.90;;;;;;5052247;28;20217;-70
2022/07/14 09:41:37;;;;;;;3.03;2.03;;;23.10;99.90;;;;;;5052816;28;20283;-66
2022/07/14 09:44:09;;;;;;;3.73;2.00;;;23.20;99.90;;;;;;5039614;28;20203;-64
2022/07/14 09:46:54;;;;;;;3.47;2.17;;;23.20;99.90;;;;;;5032324;28;20208;-64
2022/07/14 09:49:23;;;;;;;2.20;2.00;;;23.30;99.90;;;;;;5032485;28;20213;-66
2022/07/14 09:51:57;;;;;;;3.60;2.10;;;23.30;99.90;;;;;;5043461;28;20204;-64
2022/07/14 09:54:47;;;;;;;4.00;2.23;;;23.30;99.90;;;;;;5044341;28;20253;-68
2022/07/14 09:57:29;;;;;;;2.60;2.10;;;23.40;99.90;;;;;;5052438;28;20279;-65
2022/07/14 09:59:58;;;;;;;2.07;1.83;;;23.30;99.90;;;;;;5046318;28;20205;-65
2022/07/14 10:02:28;;;;;;;7.87;2.70;;;23.30;99.90;;;;;;5048777;28;20258;-65
2022/07/14 10:04:58;;;;;;;3.40;2.10;;;23.20;99.90;;;;;;5052194;28;20235;-65
2022/07/14 10:07:26;;;;;;;5.57;2.23;;;23.30;99.90;;;;;;5052343;28;20502;-65
2022/07/14 10:10:02;;;;;;;4.83;2.50;;;23.40;99.90;;;;;;5052175;28;20200;-64
2022/07/14 10:12:31;;;;;;;3.67;2.27;;;23.50;99.90;;;;;;5052320;28;20704;-67
2022/07/14 10:15:02;;;;;;;3.07;2.27;;;23.60;99.90;;;;;;5052439;28;20746;-66
2022/07/14 10:17:30;;;;;;;3.77;2.30;;;23.60;99.90;;;;;;5038753;28;20216;-64
2022/07/14 10:19:58;;;;;;;2.37;2.10;;;23.60;99.90;;;;;;5046719;28;20266;-63
2022/07/14 10:22:25;;;;;;;2.30;2.00;;;23.60;99.90;;;;;;5051583;28;20256;-65
2022/07/14 10:24:53;;;;;;;2.67;2.20;;;23.40;99.90;;;;;;5048208;28;20255;-64
2022/07/14 10:27:20;;;;;;;3.93;2.00;;;23.40;99.90;;;;;;5038674;28;20212;-65
2022/07/14 10:29:51;;;;;;;3.87;2.37;;;23.40;99.90;;;;;;5038247;28;20288;-64
2022/07/14 10:32:46;;;;;;;2.70;2.17;;;23.40;99.90;;;;;;5050280;28;20225;-67
2022/07/14 10:35:27;;;;;;;2.63;2.13;;;23.50;99.90;;;;;;5037557;28;20233;-67
2022/07/14 10:38:11;;;;;;;2.70;2.30;;;23.60;99.90;;;;;;5047119;28;20200;-66
2022/07/14 10:40:46;;;;;;;2.43;2.10;;;23.70;99.90;;;;;;5041530;28;20287;-66
2022/07/14 10:43:16;;;;;;;4.43;2.37;;;23.80;99.90;;;;;;5051519;28;20311;-67
2022/07/14 10:45:53;;;;;;;2.97;2.10;;;23.80;99.90;;;;;;5050443;28;20190;-67
2022/07/14 10:48:30;;;;;;;3.47;2.30;;;23.90;99.90;;;;;;5051923;28;20276;-71
2022/07/14 10:51:16;;;;;;;4.00;2.30;;;23.90;99.90;;;;;;5043302;28;20207;-69
2022/07/14 10:54:15;;;;;;;2.53;1.93;;;23.90;99.90;;;;;;5035428;28;20249;-68
2022/07/14 10:56:44;;;;;;;3.30;2.00;;;24.00;99.90;;;;;;5046981;28;20649;-64
2022/07/14 10:59:33;;;;;;;2.20;2.00;;;24.00;99.90;;;;;;5044589;28;20279;-65
2022/07/14 11:02:33;;;;;;;2.83;2.13;;;23.90;99.90;;;;;;5042811;28;20634;-65
2022/07/14 11:05:14;;;;;;;3.00;2.00;;;24.00;99.90;;;;;;5054004;28;20528;-66
2022/07/14 11:07:47;;;;;;;4.17;2.17;;;24.00;99.90;;;;;;5046435;28;20718;-66
2022/07/14 11:11:08;;;;;;;5.43;2.10;;;24.10;99.90;;;;;;5051774;28;20238;-66
2022/07/14 11:13:35;;;;;;;3.28;2.22;;;24.20;99.90;;;;;;5052372;28;20653;-70
2022/07/14 11:16:04;;;;;;;3.58;2.33;;;24.30;99.90;;;;;;5055362;28;20620;-70
2022/07/14 11:18:35;;;;;;;3.77;2.20;;;24.50;99.90;;;;;;5055344;28;20304;-68
2022/07/14 11:21:06;;;;;;;3.53;2.00;;;24.60;99.90;;;;;;5055098;28;20587;-66
2022/07/14 11:23:35;;;;;;;3.50;2.10;;;24.60;99.90;;;;;;5047420;28;20213;-68
2022/07/14 11:26:05;;;;;;;2.58;1.92;;;24.80;99.90;;;;;;5043502;28;20289;-67
2022/07/14 11:28:42;;;;;;;3.92;2.60;;;24.90;99.90;;;;;;5056668;28;20194;-67
2022/07/14 11:31:12;;;;;;;2.45;1.95;;;25.00;99.90;;;;;;5056528;28;20224;-65
2022/07/14 11:36:29;;;;;;;2.92;2.00;;;24.90;99.90;;;;;;5054911;28;20374;-65
2022/07/14 11:39:22;;;;;;;3.60;2.05;;;24.80;99.90;;;;;;5056404;28;20202;-67
2022/07/14 11:41:52;;;;;;;3.20;2.00;;;24.70;99.90;;;;;;5057154;28;20209;-65
2022/07/14 11:44:44;;;;;;;3.03;2.05;;;24.60;99.90;;;;;;5042550;28;20697;-67
2022/07/14 11:47:16;;;;;;;3.55;1.90;;;24.60;99.90;;;;;;5055462;28;20299;-66
2022/07/14 11:49:53;;;;;;;3.45;1.90;;;24.60;99.90;;;;;;5036787;28;20660;-70
2022/07/14 11:52:29;;;;;;;4.82;2.00;;;24.60;99.90;;;;;;5055291;28;20189;-71
2022/07/14 11:54:58;;;;;;;4.47;2.78;;;24.70;99.90;;;;;;5045115;28;20294;-70
2022/07/14 11:57:24;;;;;;;2.75;1.83;;;24.80;99.90;;;;;;5035239;28;20342;-69
2022/07/14 11:59:53;;;;;;;4.13;1.80;;;24.90;99.90;;;;;;5050702;28;20298;-67
2022/07/14 12:02:22;;;;;;;2.00;1.80;;;25.00;99.90;;;;;;5066296;28;20717;-66
2022/07/14 12:04:53;;;;;;;1.80;1.70;;;25.10;99.90;;;;;;5038990;28;20265;-67
2022/07/14 12:07:24;;;;;;;5.03;2.10;;;25.10;99.90;;;;;;5038753;28;20561;-67
2022/07/14 12:09:53;;;;;;;2.75;2.00;;;25.20;99.90;;;;;;5039855;28;20235;-69
2022/07/14 12:12:24;;;;;;;2.95;2.00;;;25.30;99.90;;;;;;5045274;28;20207;-70
2022/07/14 12:14:53;;;;;;;2.47;1.83;;;25.40;99.90;;;;;;5034259;28;20187;-69
2022/07/14 12:17:21;;;;;;;3.55;1.92;;;25.30;99.90;;;;;;5033366;28;20213;-66
2022/07/14 12:19:50;;;;;;;4.90;2.05;;;25.30;99.90;;;;;;5046654;28;20232;-64
2022/07/14 12:22:17;;;;;;;3.20;2.30;;;25.10;99.90;;;;;;5051546;28;20232;-70
2022/07/14 12:24:45;;;;;;;2.40;2.00;;;25.10;99.90;;;;;;5040984;28;20250;-67
2022/07/14 12:27:13;;;;;;;3.60;2.00;;;25.20;99.90;;;;;;5052270;28;20265;-67
2022/07/14 12:29:47;;;;;;;4.40;2.22;;;25.30;99.90;;;;;;5049248;28;20295;-66
2022/07/14 12:32:15;;;;;;;3.65;2.20;;;25.30;99.90;;;;;;5039982;28;20215;-65
2022/07/14 12:34:43;;;;;;;5.68;1.95;;;25.40;99.90;;;;;;5037504;28;20208;-67
2022/07/14 12:37:11;;;;;;;4.78;1.92;;;25.40;99.90;;;;;;5037877;28;20314;-67
2022/07/14 12:39:41;;;;;;;3.17;2.33;;;25.40;99.90;;;;;;5054179;28;20250;-64
2022/07/14 12:42:09;;;;;;;3.85;1.95;;;25.60;99.90;;;;;;5054067;28;20204;-69
2022/07/14 12:44:58;;;;;;;2.65;2.15;;;25.60;99.90;;;;;;5054318;28;20645;-64
2022/07/14 12:47:25;;;;;;;3.05;1.98;;;25.60;99.90;;;;;;5054068;28;20385;-68
2022/07/14 12:49:52;;;;;;;2.20;1.85;;;25.60;99.90;;;;;;5053224;28;20202;-64
2022/07/14 12:52:20;;;;;;;4.70;2.13;;;25.70;99.90;;;;;;5053468;28;20207;-66
2022/07/14 12:54:48;;;;;;;3.85;2.00;;;25.60;99.90;;;;;;5053852;28;20670;-67
2022/07/14 12:57:23;;;;;;;2.97;1.90;;;25.60;99.90;;;;;;5041659;28;20630;-68
2022/07/14 12:59:51;;;;;;;4.00;1.75;;;25.50;99.90;;;;;;5034965;28;20210;-67
2022/07/14 13:02:23;;;;;;;7.15;2.00;;;25.50;99.90;;;;;;5040152;28;20702;-71
2022/07/14 13:05:00;;;;;;;2.15;1.92;;;25.60;99.90;;;;;;5045990;28;20271;-71
2022/07/14 13:07:30;;;;;;;2.67;1.90;;;25.70;99.90;;;;;;5046794;28;20227;-69
2022/07/14 13:10:12;;;;;;;3.22;1.98;;;25.80;99.90;;;;;;5033776;28;20282;-68